sensor_id;sensor_type;location;lat;lon;timestamp;P1;durP1;ratioP1;P2;durP2;ratioP2
48574;SDS011;34352;51.084;3.712;2023-07-16T00:00:33;1.85;;;1.40;;
48574;SDS011;34352;51.084;3.712;2023-07-16T00:03:02;4.78;;;1.25;;
48574;SDS011;34352;51.084;3.712;2023-07-16T00:05:30;1.35;;;1.00;;
48574;SDS011;34352;51.084;3.712;2023-07-16T00:07:56;2.85;;;1.08;;
48574;SDS011;34352;51.084;3.712;2023-07-16T00:10:22;3.25;;;1.60;;
48574;SDS011;34352;51.084;3.712;2023-07-16T00:12:49;4.57;;;1.20;;
48574;SDS011;34352;51.084;3.712;2023-07-16T00:15:15;3.63;;;1.27;;
48574;SDS011;34352;51.084;3.712;2023-07-16T00:17:41;2.28;;;1.52;;
48574;SDS011;34352;51.084;3.712;2023-07-16T00:20:08;3.30;;;1.48;;
48574;SDS011;34352;51.084;3.712;2023-07-16T00:22:35;3.35;;;1.73;;
48574;SDS011;34352;51.084;3.712;2023-07-16T00:25:04;3.42;;;1.50;;
48574;SDS011;34352;51.084;3.712;2023-07-16T00:27:32;3.83;;;1.45;;
48574;SDS011;34352;51.084;3.712;2023-07-16T00:30:00;3.70;;;1.27;;
48574;SDS011;34352;51.084;3.712;2023-07-16T00:32:26;4.90;;;1.60;;
48574;SDS011;34352;51.084;3.712;2023-07-16T00:34:51;3.72;;;1.67;;
48574;SDS011;34352;51.084;3.712;2023-07-16T00:37:17;2.13;;;1.48;;
48574;SDS011;34352;51.084;3.712;2023-07-16T00:39:43;6.43;;;2.13;;
48574;SDS011;34352;51.084;3.712;2023-07-16T00:42:09;3.67;;;1.77;;
48574;SDS011;34352;51.084;3.712;2023-07-16T00:47:30;5.00;;;1.58;;
48574;SDS011;34352;51.084;3.712;2023-07-16T00:49:57;4.82;;;1.40;;
48574;SDS011;34352;51.084;3.712;2023-07-16T00:52:23;3.63;;;1.08;;
48574;SDS011;34352;51.084;3.712;2023-07-16T00:54:50;4.80;;;1.38;;
48574;SDS011;34352;51.084;3.712;2023-07-16T00:57:17;3.00;;;1.05;;
48574;SDS011;34352;51.084;3.712;2023-07-16T00:59:45;3.50;;;1.67;;
48574;SDS011;34352;51.084;3.712;2023-07-16T01:02:11;6.30;;;1.90;;
48574;SDS011;34352;51.084;3.712;2023-07-16T01:04:38;1.98;;;1.77;;
48574;SDS011;34352;51.084;3.712;2023-07-16T01:07:06;2.10;;;1.60;;
48574;SDS011;34352;51.084;3.712;2023-07-16T01:09:44;4.60;;;1.80;;
48574;SDS011;34352;51.084;3.712;2023-07-16T01:12:10;3.63;;;1.67;;
48574;SDS011;34352;51.084;3.712;2023-07-16T01:14:50;3.28;;;2.28;;
48574;SDS011;34352;51.084;3.712;2023-07-16T01:17:17;2.38;;;1.35;;
48574;SDS011;34352;51.084;3.712;2023-07-16T01:19:43;5.13;;;1.50;;
48574;SDS011;34352;51.084;3.712;2023-07-16T01:25:00;3.92;;;1.75;;
48574;SDS011;34352;51.084;3.712;2023-07-16T01:30:46;3.50;;;1.80;;
48574;SDS011;34352;51.084;3.712;2023-07-16T01:33:22;4.60;;;2.22;;
48574;SDS011;34352;51.084;3.712;2023-07-16T01:35:56;2.85;;;1.75;;
48574;SDS011;34352;51.084;3.712;2023-07-16T01:38:22;2.83;;;1.98;;
48574;SDS011;34352;51.084;3.712;2023-07-16T01:40:50;5.63;;;1.98;;
48574;SDS011;34352;51.084;3.712;2023-07-16T01:43:17;4.35;;;1.85;;
48574;SDS011;34352;51.084;3.712;2023-07-16T01:45:43;3.38;;;1.80;;
48574;SDS011;34352;51.084;3.712;2023-07-16T01:51:13;4.32;;;1.92;;
48574;SDS011;34352;51.084;3.712;2023-07-16T01:53:40;5.10;;;2.53;;
48574;SDS011;34352;51.084;3.712;2023-07-16T01:56:06;3.30;;;2.15;;
48574;SDS011;34352;51.084;3.712;2023-07-16T01:58:32;4.47;;;2.28;;
48574;SDS011;34352;51.084;3.712;2023-07-16T02:01:00;2.65;;;1.75;;
48574;SDS011;34352;51.084;3.712;2023-07-16T02:03:26;5.55;;;2.25;;
48574;SDS011;34352;51.084;3.712;2023-07-16T02:05:54;2.45;;;1.33;;
48574;SDS011;34352;51.084;3.712;2023-07-16T02:08:19;2.75;;;1.83;;
48574;SDS011;34352;51.084;3.712;2023-07-16T02:10:49;3.40;;;1.63;;
48574;SDS011;34352;51.084;3.712;2023-07-16T02:13:17;4.28;;;1.50;;
48574;SDS011;34352;51.084;3.712;2023-07-16T02:15:43;5.78;;;1.75;;
48574;SDS011;34352;51.084;3.712;2023-07-16T02:18:09;3.50;;;1.67;;
48574;SDS011;34352;51.084;3.712;2023-07-16T02:20:35;2.80;;;1.67;;
48574;SDS011;34352;51.084;3.712;2023-07-16T02:23:03;2.17;;;1.58;;
48574;SDS011;34352;51.084;3.712;2023-07-16T02:25:29;3.92;;;2.08;;
48574;SDS011;34352;51.084;3.712;2023-07-16T02:27:56;2.03;;;1.42;;
48574;SDS011;34352;51.084;3.712;2023-07-16T02:30:21;3.78;;;1.60;;
48574;SDS011;34352;51.084;3.712;2023-07-16T02:32:57;4.50;;;1.80;;
48574;SDS011;34352;51.084;3.712;2023-07-16T02:35:25;4.65;;;2.30;;
48574;SDS011;34352;51.084;3.712;2023-07-16T02:37:55;3.53;;;2.08;;
48574;SDS011;34352;51.084;3.712;2023-07-16T02:40:21;4.38;;;2.28;;
48574;SDS011;34352;51.084;3.712;2023-07-16T02:42:52;5.43;;;2.05;;
48574;SDS011;34352;51.084;3.712;2023-07-16T02:45:20;5.10;;;1.90;;
48574;SDS011;34352;51.084;3.712;2023-07-16T02:50:55;3.13;;;2.00;;
48574;SDS011;34352;51.084;3.712;2023-07-16T02:55:57;6.07;;;2.80;;
48574;SDS011;34352;51.084;3.712;2023-07-16T02:58:23;4.05;;;2.10;;
48574;SDS011;34352;51.084;3.712;2023-07-16T03:00:49;6.10;;;2.33;;
48574;SDS011;34352;51.084;3.712;2023-07-16T03:05:47;3.78;;;1.98;;
48574;SDS011;34352;51.084;3.712;2023-07-16T03:08:15;4.22;;;2.05;;
48574;SDS011;34352;51.084;3.712;2023-07-16T03:10:43;6.45;;;2.40;;
48574;SDS011;34352;51.084;3.712;2023-07-16T03:13:10;4.50;;;2.10;;
48574;SDS011;34352;51.084;3.712;2023-07-16T03:15:35;5.38;;;2.20;;
48574;SDS011;34352;51.084;3.712;2023-07-16T03:18:09;2.95;;;2.00;;
48574;SDS011;34352;51.084;3.712;2023-07-16T03:20:45;3.15;;;2.13;;
48574;SDS011;34352;51.084;3.712;2023-07-16T03:23:14;4.97;;;2.08;;
48574;SDS011;34352;51.084;3.712;2023-07-16T03:25:40;3.47;;;2.38;;
48574;SDS011;34352;51.084;3.712;2023-07-16T03:30:37;8.27;;;2.28;;
48574;SDS011;34352;51.084;3.712;2023-07-16T03:33:11;3.17;;;1.88;;
48574;SDS011;34352;51.084;3.712;2023-07-16T03:35:46;3.33;;;2.10;;
48574;SDS011;34352;51.084;3.712;2023-07-16T03:38:12;6.03;;;2.78;;
48574;SDS011;34352;51.084;3.712;2023-07-16T03:40:38;4.97;;;2.30;;
48574;SDS011;34352;51.084;3.712;2023-07-16T03:45:55;6.10;;;2.80;;
48574;SDS011;34352;51.084;3.712;2023-07-16T03:48:22;3.35;;;2.13;;
48574;SDS011;34352;51.084;3.712;2023-07-16T03:50:48;2.58;;;1.88;;
48574;SDS011;34352;51.084;3.712;2023-07-16T03:53:31;6.30;;;2.83;;
48574;SDS011;34352;51.084;3.712;2023-07-16T03:56:05;3.97;;;2.65;;
48574;SDS011;34352;51.084;3.712;2023-07-16T03:58:30;3.80;;;2.50;;
48574;SDS011;34352;51.084;3.712;2023-07-16T04:01:13;3.20;;;2.17;;
48574;SDS011;34352;51.084;3.712;2023-07-16T04:06:09;7.43;;;3.30;;
48574;SDS011;34352;51.084;3.712;2023-07-16T04:08:36;4.20;;;2.40;;
48574;SDS011;34352;51.084;3.712;2023-07-16T04:13:33;5.45;;;2.80;;
48574;SDS011;34352;51.084;3.712;2023-07-16T04:15:59;6.35;;;3.28;;
48574;SDS011;34352;51.084;3.712;2023-07-16T04:21:29;4.47;;;2.40;;
48574;SDS011;34352;51.084;3.712;2023-07-16T04:27:03;6.32;;;3.05;;
48574;SDS011;34352;51.084;3.712;2023-07-16T04:29:38;5.05;;;2.50;;
48574;SDS011;34352;51.084;3.712;2023-07-16T04:32:05;8.70;;;3.13;;
48574;SDS011;34352;51.084;3.712;2023-07-16T04:34:33;6.50;;;2.95;;
48574;SDS011;34352;51.084;3.712;2023-07-16T04:37:00;5.15;;;2.75;;
48574;SDS011;34352;51.084;3.712;2023-07-16T04:41:59;5.22;;;3.25;;
48574;SDS011;34352;51.084;3.712;2023-07-16T04:47:28;5.47;;;2.30;;
48574;SDS011;34352;51.084;3.712;2023-07-16T04:49:55;6.60;;;2.95;;
48574;SDS011;34352;51.084;3.712;2023-07-16T04:55:11;10.18;;;3.65;;
48574;SDS011;34352;51.084;3.712;2023-07-16T04:57:39;6.50;;;2.75;;
48574;SDS011;34352;51.084;3.712;2023-07-16T05:00:06;5.55;;;2.78;;
48574;SDS011;34352;51.084;3.712;2023-07-16T05:02:44;5.50;;;2.67;;
48574;SDS011;34352;51.084;3.712;2023-07-16T05:05:19;4.70;;;2.60;;
48574;SDS011;34352;51.084;3.712;2023-07-16T05:07:45;7.57;;;3.38;;
48574;SDS011;34352;51.084;3.712;2023-07-16T05:10:14;5.80;;;3.17;;
48574;SDS011;34352;51.084;3.712;2023-07-16T05:12:48;5.75;;;2.75;;
48574;SDS011;34352;51.084;3.712;2023-07-16T05:15:29;5.65;;;3.55;;
48574;SDS011;34352;51.084;3.712;2023-07-16T05:17:56;7.43;;;3.17;;
48574;SDS011;34352;51.084;3.712;2023-07-16T05:20:23;4.47;;;2.58;;
48574;SDS011;34352;51.084;3.712;2023-07-16T05:22:50;9.48;;;3.15;;
48574;SDS011;34352;51.084;3.712;2023-07-16T05:25:18;7.70;;;2.65;;
48574;SDS011;34352;51.084;3.712;2023-07-16T05:32:56;6.50;;;3.03;;
48574;SDS011;34352;51.084;3.712;2023-07-16T05:35:37;8.07;;;3.17;;
48574;SDS011;34352;51.084;3.712;2023-07-16T05:38:08;7.13;;;3.53;;
48574;SDS011;34352;51.084;3.712;2023-07-16T05:40:35;7.30;;;3.00;;
48574;SDS011;34352;51.084;3.712;2023-07-16T05:43:03;5.30;;;2.58;;
48574;SDS011;34352;51.084;3.712;2023-07-16T05:45:29;8.38;;;3.47;;
48574;SDS011;34352;51.084;3.712;2023-07-16T05:48:08;4.95;;;3.15;;
48574;SDS011;34352;51.084;3.712;2023-07-16T05:50:43;8.02;;;3.10;;
48574;SDS011;34352;51.084;3.712;2023-07-16T05:53:11;6.50;;;3.20;;
48574;SDS011;34352;51.084;3.712;2023-07-16T05:55:41;5.10;;;2.75;;
48574;SDS011;34352;51.084;3.712;2023-07-16T05:58:08;7.68;;;3.00;;
48574;SDS011;34352;51.084;3.712;2023-07-16T06:00:34;13.10;;;4.53;;
48574;SDS011;34352;51.084;3.712;2023-07-16T06:03:02;6.97;;;3.63;;
48574;SDS011;34352;51.084;3.712;2023-07-16T06:05:29;9.30;;;3.20;;
48574;SDS011;34352;51.084;3.712;2023-07-16T06:08:00;5.97;;;2.83;;
48574;SDS011;34352;51.084;3.712;2023-07-16T06:10:28;5.32;;;3.13;;
48574;SDS011;34352;51.084;3.712;2023-07-16T06:12:54;6.40;;;3.88;;
48574;SDS011;34352;51.084;3.712;2023-07-16T06:15:19;6.15;;;3.42;;
48574;SDS011;34352;51.084;3.712;2023-07-16T06:17:45;6.10;;;3.45;;
48574;SDS011;34352;51.084;3.712;2023-07-16T06:20:12;5.85;;;2.78;;
48574;SDS011;34352;51.084;3.712;2023-07-16T06:22:38;3.60;;;2.22;;
48574;SDS011;34352;51.084;3.712;2023-07-16T06:25:05;5.13;;;2.88;;
48574;SDS011;34352;51.084;3.712;2023-07-16T06:33:41;7.97;;;3.38;;
48574;SDS011;34352;51.084;3.712;2023-07-16T06:39:02;6.40;;;3.15;;
48574;SDS011;34352;51.084;3.712;2023-07-16T06:41:43;6.10;;;2.67;;
48574;SDS011;34352;51.084;3.712;2023-07-16T06:47:13;8.85;;;3.63;;
48574;SDS011;34352;51.084;3.712;2023-07-16T06:49:40;4.05;;;2.70;;
48574;SDS011;34352;51.084;3.712;2023-07-16T06:52:06;8.68;;;4.20;;
48574;SDS011;34352;51.084;3.712;2023-07-16T06:54:32;7.25;;;3.85;;
48574;SDS011;34352;51.084;3.712;2023-07-16T06:57:00;8.07;;;3.30;;
48574;SDS011;34352;51.084;3.712;2023-07-16T06:59:27;8.63;;;3.72;;
48574;SDS011;34352;51.084;3.712;2023-07-16T07:04:23;16.75;;;4.18;;
48574;SDS011;34352;51.084;3.712;2023-07-16T07:06:50;5.45;;;3.50;;
48574;SDS011;34352;51.084;3.712;2023-07-16T07:09:18;6.97;;;3.78;;
48574;SDS011;34352;51.084;3.712;2023-07-16T07:11:44;5.57;;;3.25;;
48574;SDS011;34352;51.084;3.712;2023-07-16T07:14:10;5.13;;;2.80;;
48574;SDS011;34352;51.084;3.712;2023-07-16T07:16:37;4.75;;;2.67;;
48574;SDS011;34352;51.084;3.712;2023-07-16T07:19:09;5.50;;;2.85;;
48574;SDS011;34352;51.084;3.712;2023-07-16T07:21:34;8.90;;;3.60;;
48574;SDS011;34352;51.084;3.712;2023-07-16T07:24:00;4.68;;;2.83;;
48574;SDS011;34352;51.084;3.712;2023-07-16T07:26:28;5.43;;;2.78;;
48574;SDS011;34352;51.084;3.712;2023-07-16T07:28:55;7.75;;;3.38;;
48574;SDS011;34352;51.084;3.712;2023-07-16T07:31:21;7.10;;;3.40;;
48574;SDS011;34352;51.084;3.712;2023-07-16T07:33:49;5.68;;;3.13;;
48574;SDS011;34352;51.084;3.712;2023-07-16T07:36:16;7.15;;;3.58;;
48574;SDS011;34352;51.084;3.712;2023-07-16T07:38:42;8.98;;;3.50;;
48574;SDS011;34352;51.084;3.712;2023-07-16T07:41:08;8.48;;;2.72;;
48574;SDS011;34352;51.084;3.712;2023-07-16T07:43:33;8.57;;;3.30;;
48574;SDS011;34352;51.084;3.712;2023-07-16T07:46:00;5.97;;;2.65;;
48574;SDS011;34352;51.084;3.712;2023-07-16T07:48:26;8.35;;;3.30;;
48574;SDS011;34352;51.084;3.712;2023-07-16T07:50:52;6.57;;;3.08;;
48574;SDS011;34352;51.084;3.712;2023-07-16T07:53:18;7.43;;;3.08;;
48574;SDS011;34352;51.084;3.712;2023-07-16T07:55:44;7.85;;;3.15;;
48574;SDS011;34352;51.084;3.712;2023-07-16T07:58:10;5.32;;;3.10;;
48574;SDS011;34352;51.084;3.712;2023-07-16T08:00:38;4.53;;;2.83;;
48574;SDS011;34352;51.084;3.712;2023-07-16T08:03:05;7.13;;;3.90;;
48574;SDS011;34352;51.084;3.712;2023-07-16T08:05:30;7.80;;;3.05;;
48574;SDS011;34352;51.084;3.712;2023-07-16T08:10:35;5.30;;;3.00;;
48574;SDS011;34352;51.084;3.712;2023-07-16T08:13:00;11.00;;;3.40;;
48574;SDS011;34352;51.084;3.712;2023-07-16T08:15:26;7.18;;;3.17;;
48574;SDS011;34352;51.084;3.712;2023-07-16T08:17:52;6.45;;;3.53;;
48574;SDS011;34352;51.084;3.712;2023-07-16T08:20:18;4.03;;;2.75;;
48574;SDS011;34352;51.084;3.712;2023-07-16T08:22:43;6.95;;;3.03;;
48574;SDS011;34352;51.084;3.712;2023-07-16T08:25:09;5.10;;;3.20;;
48574;SDS011;34352;51.084;3.712;2023-07-16T08:27:35;6.82;;;3.20;;
48574;SDS011;34352;51.084;3.712;2023-07-16T08:30:01;6.25;;;3.35;;
48574;SDS011;34352;51.084;3.712;2023-07-16T08:32:27;4.82;;;3.05;;
48574;SDS011;34352;51.084;3.712;2023-07-16T08:34:52;6.47;;;2.95;;
48574;SDS011;34352;51.084;3.712;2023-07-16T08:37:18;7.35;;;3.15;;
48574;SDS011;34352;51.084;3.712;2023-07-16T08:39:45;6.68;;;3.50;;
48574;SDS011;34352;51.084;3.712;2023-07-16T08:42:10;6.47;;;3.10;;
48574;SDS011;34352;51.084;3.712;2023-07-16T08:44:39;6.65;;;3.30;;
48574;SDS011;34352;51.084;3.712;2023-07-16T08:47:06;3.95;;;2.28;;
48574;SDS011;34352;51.084;3.712;2023-07-16T08:49:34;4.80;;;2.60;;
48574;SDS011;34352;51.084;3.712;2023-07-16T08:52:01;8.15;;;3.05;;
48574;SDS011;34352;51.084;3.712;2023-07-16T08:54:28;9.27;;;2.95;;
48574;SDS011;34352;51.084;3.712;2023-07-16T08:56:53;7.13;;;3.38;;
48574;SDS011;34352;51.084;3.712;2023-07-16T08:59:20;3.95;;;2.72;;
48574;SDS011;34352;51.084;3.712;2023-07-16T09:01:47;6.63;;;3.17;;
48574;SDS011;34352;51.084;3.712;2023-07-16T09:04:13;8.05;;;3.08;;
48574;SDS011;34352;51.084;3.712;2023-07-16T09:06:42;5.88;;;3.05;;
48574;SDS011;34352;51.084;3.712;2023-07-16T09:09:08;14.82;;;3.72;;
48574;SDS011;34352;51.084;3.712;2023-07-16T09:11:37;6.53;;;2.72;;
48574;SDS011;34352;51.084;3.712;2023-07-16T09:14:14;4.53;;;2.72;;
48574;SDS011;34352;51.084;3.712;2023-07-16T09:16:41;4.80;;;2.78;;
48574;SDS011;34352;51.084;3.712;2023-07-16T09:19:09;9.82;;;2.90;;
48574;SDS011;34352;51.084;3.712;2023-07-16T09:21:36;6.50;;;2.55;;
48574;SDS011;34352;51.084;3.712;2023-07-16T09:24:05;5.00;;;3.10;;
48574;SDS011;34352;51.084;3.712;2023-07-16T09:26:33;5.35;;;2.38;;
48574;SDS011;34352;51.084;3.712;2023-07-16T09:29:01;2.33;;;1.27;;
48574;SDS011;34352;51.084;3.712;2023-07-16T09:31:31;3.20;;;1.52;;
48574;SDS011;34352;51.084;3.712;2023-07-16T09:33:57;1.45;;;0.93;;
48574;SDS011;34352;51.084;3.712;2023-07-16T09:36:27;2.80;;;1.30;;
48574;SDS011;34352;51.084;3.712;2023-07-16T09:38:55;2.33;;;1.40;;
48574;SDS011;34352;51.084;3.712;2023-07-16T09:41:23;4.28;;;1.80;;
48574;SDS011;34352;51.084;3.712;2023-07-16T09:43:49;1.92;;;1.23;;
48574;SDS011;34352;51.084;3.712;2023-07-16T09:46:16;2.00;;;1.33;;
48574;SDS011;34352;51.084;3.712;2023-07-16T09:48:41;1.67;;;1.13;;
48574;SDS011;34352;51.084;3.712;2023-07-16T09:51:07;1.45;;;1.10;;
48574;SDS011;34352;51.084;3.712;2023-07-16T09:53:38;1.85;;;0.95;;
48574;SDS011;34352;51.084;3.712;2023-07-16T09:56:06;8.10;;;1.20;;
48574;SDS011;34352;51.084;3.712;2023-07-16T09:58:33;1.35;;;0.68;;
48574;SDS011;34352;51.084;3.712;2023-07-16T10:00:59;1.58;;;0.90;;
48574;SDS011;34352;51.084;3.712;2023-07-16T10:03:27;2.20;;;0.70;;
48574;SDS011;34352;51.084;3.712;2023-07-16T10:05:53;1.65;;;1.08;;
48574;SDS011;34352;51.084;3.712;2023-07-16T10:08:19;1.00;;;0.80;;
48574;SDS011;34352;51.084;3.712;2023-07-16T10:10:46;1.25;;;0.80;;
48574;SDS011;34352;51.084;3.712;2023-07-16T10:13:13;2.17;;;1.13;;
48574;SDS011;34352;51.084;3.712;2023-07-16T10:15:49;1.45;;;1.00;;
48574;SDS011;34352;51.084;3.712;2023-07-16T10:18:29;2.35;;;0.80;;
48574;SDS011;34352;51.084;3.712;2023-07-16T10:23:38;0.70;;;0.63;;
48574;SDS011;34352;51.084;3.712;2023-07-16T10:26:07;0.52;;;0.43;;
48574;SDS011;34352;51.084;3.712;2023-07-16T10:28:34;1.25;;;0.70;;
48574;SDS011;34352;51.084;3.712;2023-07-16T10:31:01;1.77;;;0.90;;
48574;SDS011;34352;51.084;3.712;2023-07-16T10:33:27;0.98;;;0.80;;
48574;SDS011;34352;51.084;3.712;2023-07-16T10:35:55;0.50;;;0.50;;
48574;SDS011;34352;51.084;3.712;2023-07-16T10:38:23;1.23;;;0.80;;
48574;SDS011;34352;51.084;3.712;2023-07-16T10:40:49;1.38;;;0.82;;
48574;SDS011;34352;51.084;3.712;2023-07-16T10:43:15;2.03;;;1.00;;
48574;SDS011;34352;51.084;3.712;2023-07-16T10:45:41;3.17;;;1.35;;
48574;SDS011;34352;51.084;3.712;2023-07-16T10:48:07;1.85;;;0.95;;
48574;SDS011;34352;51.084;3.712;2023-07-16T10:50:33;2.03;;;1.05;;
48574;SDS011;34352;51.084;3.712;2023-07-16T10:52:59;2.45;;;1.35;;
48574;SDS011;34352;51.084;3.712;2023-07-16T10:55:26;2.65;;;1.10;;
48574;SDS011;34352;51.084;3.712;2023-07-16T10:57:53;3.53;;;1.58;;
48574;SDS011;34352;51.084;3.712;2023-07-16T11:00:19;9.20;;;2.08;;
48574;SDS011;34352;51.084;3.712;2023-07-16T11:02:47;2.03;;;1.20;;
48574;SDS011;34352;51.084;3.712;2023-07-16T11:05:14;1.75;;;1.45;;
48574;SDS011;34352;51.084;3.712;2023-07-16T11:07:44;2.15;;;1.50;;
48574;SDS011;34352;51.084;3.712;2023-07-16T11:10:11;4.15;;;1.42;;
48574;SDS011;34352;51.084;3.712;2023-07-16T11:12:38;2.58;;;1.33;;
48574;SDS011;34352;51.084;3.712;2023-07-16T11:15:04;5.40;;;1.52;;
48574;SDS011;34352;51.084;3.712;2023-07-16T11:17:30;2.47;;;1.27;;
48574;SDS011;34352;51.084;3.712;2023-07-16T11:19:59;3.05;;;0.85;;
48574;SDS011;34352;51.084;3.712;2023-07-16T11:22:26;3.40;;;1.45;;
48574;SDS011;34352;51.084;3.712;2023-07-16T11:24:52;2.33;;;1.40;;
48574;SDS011;34352;51.084;3.712;2023-07-16T11:27:25;2.28;;;1.10;;
48574;SDS011;34352;51.084;3.712;2023-07-16T11:29:56;1.77;;;1.23;;
48574;SDS011;34352;51.084;3.712;2023-07-16T11:32:29;3.35;;;1.17;;
48574;SDS011;34352;51.084;3.712;2023-07-16T11:34:58;2.17;;;1.20;;
48574;SDS011;34352;51.084;3.712;2023-07-16T11:37:24;2.67;;;1.40;;
48574;SDS011;34352;51.084;3.712;2023-07-16T11:39:55;3.85;;;1.40;;
48574;SDS011;34352;51.084;3.712;2023-07-16T11:42:29;1.80;;;1.30;;
48574;SDS011;34352;51.084;3.712;2023-07-16T11:44:55;2.08;;;1.20;;
48574;SDS011;34352;51.084;3.712;2023-07-16T11:47:21;3.97;;;2.00;;
48574;SDS011;34352;51.084;3.712;2023-07-16T11:49:48;2.17;;;0.98;;
48574;SDS011;34352;51.084;3.712;2023-07-16T11:52:14;3.13;;;1.48;;
48574;SDS011;34352;51.084;3.712;2023-07-16T11:54:43;3.80;;;1.60;;
48574;SDS011;34352;51.084;3.712;2023-07-16T11:57:09;1.95;;;1.42;;
48574;SDS011;34352;51.084;3.712;2023-07-16T11:59:34;2.42;;;1.25;;
48574;SDS011;34352;51.084;3.712;2023-07-16T12:02:00;1.65;;;1.20;;
48574;SDS011;34352;51.084;3.712;2023-07-16T12:04:26;2.78;;;1.60;;
48574;SDS011;34352;51.084;3.712;2023-07-16T12:06:52;2.38;;;1.40;;
48574;SDS011;34352;51.084;3.712;2023-07-16T12:09:18;4.82;;;2.00;;
48574;SDS011;34352;51.084;3.712;2023-07-16T12:11:43;2.10;;;1.10;;
48574;SDS011;34352;51.084;3.712;2023-07-16T12:14:10;1.90;;;1.20;;
48574;SDS011;34352;51.084;3.712;2023-07-16T12:16:37;1.80;;;1.10;;
48574;SDS011;34352;51.084;3.712;2023-07-16T12:19:04;3.47;;;1.30;;
48574;SDS011;34352;51.084;3.712;2023-07-16T12:21:34;2.83;;;1.38;;
48574;SDS011;34352;51.084;3.712;2023-07-16T12:23:59;1.80;;;1.40;;
48574;SDS011;34352;51.084;3.712;2023-07-16T12:26:25;2.72;;;1.20;;
48574;SDS011;34352;51.084;3.712;2023-07-16T12:28:51;2.72;;;1.52;;
48574;SDS011;34352;51.084;3.712;2023-07-16T12:31:16;2.38;;;1.20;;
48574;SDS011;34352;51.084;3.712;2023-07-16T12:33:44;2.50;;;1.08;;
48574;SDS011;34352;51.084;3.712;2023-07-16T12:36:09;1.30;;;1.05;;
48574;SDS011;34352;51.084;3.712;2023-07-16T12:38:35;1.75;;;1.25;;
48574;SDS011;34352;51.084;3.712;2023-07-16T12:41:01;3.45;;;1.02;;
48574;SDS011;34352;51.084;3.712;2023-07-16T12:43:26;2.28;;;1.27;;
48574;SDS011;34352;51.084;3.712;2023-07-16T12:45:52;2.83;;;1.65;;
48574;SDS011;34352;51.084;3.712;2023-07-16T12:48:17;3.58;;;1.27;;
48574;SDS011;34352;51.084;3.712;2023-07-16T12:50:43;2.88;;;1.83;;
48574;SDS011;34352;51.084;3.712;2023-07-16T12:53:09;0.95;;;0.77;;
48574;SDS011;34352;51.084;3.712;2023-07-16T12:55:35;3.72;;;2.00;;
48574;SDS011;34352;51.084;3.712;2023-07-16T12:58:01;7.18;;;3.15;;
48574;SDS011;34352;51.084;3.712;2023-07-16T13:00:27;3.45;;;1.38;;
48574;SDS011;34352;51.084;3.712;2023-07-16T13:02:53;2.63;;;1.52;;
48574;SDS011;34352;51.084;3.712;2023-07-16T13:05:19;5.03;;;1.83;;
48574;SDS011;34352;51.084;3.712;2023-07-16T13:07:45;5.00;;;2.00;;
48574;SDS011;34352;51.084;3.712;2023-07-16T13:10:10;2.08;;;1.20;;
48574;SDS011;34352;51.084;3.712;2023-07-16T13:12:36;8.43;;;1.95;;
48574;SDS011;34352;51.084;3.712;2023-07-16T13:15:02;2.28;;;1.25;;
48574;SDS011;34352;51.084;3.712;2023-07-16T13:17:28;1.55;;;1.02;;
48574;SDS011;34352;51.084;3.712;2023-07-16T13:19:53;1.05;;;0.88;;
48574;SDS011;34352;51.084;3.712;2023-07-16T13:22:19;4.05;;;1.10;;
48574;SDS011;34352;51.084;3.712;2023-07-16T13:24:45;2.42;;;1.00;;
48574;SDS011;34352;51.084;3.712;2023-07-16T13:27:22;2.63;;;1.00;;
48574;SDS011;34352;51.084;3.712;2023-07-16T13:29:48;2.72;;;1.10;;
48574;SDS011;34352;51.084;3.712;2023-07-16T13:32:14;3.28;;;1.08;;
48574;SDS011;34352;51.084;3.712;2023-07-16T13:34:40;4.50;;;1.20;;
48574;SDS011;34352;51.084;3.712;2023-07-16T13:37:06;3.35;;;1.60;;
48574;SDS011;34352;51.084;3.712;2023-07-16T13:39:45;2.05;;;1.33;;
48574;SDS011;34352;51.084;3.712;2023-07-16T13:45:15;2.95;;;1.50;;
48574;SDS011;34352;51.084;3.712;2023-07-16T13:50:16;2.28;;;1.42;;
48574;SDS011;34352;51.084;3.712;2023-07-16T13:52:43;3.17;;;1.38;;
48574;SDS011;34352;51.084;3.712;2023-07-16T13:55:08;8.25;;;1.80;;
48574;SDS011;34352;51.084;3.712;2023-07-16T13:57:35;3.00;;;1.20;;
48574;SDS011;34352;51.084;3.712;2023-07-16T14:00:01;2.22;;;1.30;;
48574;SDS011;34352;51.084;3.712;2023-07-16T14:02:27;1.33;;;0.90;;
48574;SDS011;34352;51.084;3.712;2023-07-16T14:04:52;2.55;;;1.45;;
48574;SDS011;34352;51.084;3.712;2023-07-16T14:07:19;1.40;;;1.10;;
48574;SDS011;34352;51.084;3.712;2023-07-16T14:09:45;4.47;;;1.40;;
48574;SDS011;34352;51.084;3.712;2023-07-16T14:12:11;1.52;;;1.23;;
48574;SDS011;34352;51.084;3.712;2023-07-16T14:14:37;1.92;;;1.35;;
48574;SDS011;34352;51.084;3.712;2023-07-16T14:17:03;2.20;;;0.98;;
48574;SDS011;34352;51.084;3.712;2023-07-16T14:19:29;1.85;;;1.30;;
48574;SDS011;34352;51.084;3.712;2023-07-16T14:21:55;1.70;;;1.08;;
48574;SDS011;34352;51.084;3.712;2023-07-16T14:24:21;2.10;;;1.30;;
48574;SDS011;34352;51.084;3.712;2023-07-16T14:26:46;2.10;;;1.13;;
48574;SDS011;34352;51.084;3.712;2023-07-16T14:29:12;2.33;;;1.02;;
48574;SDS011;34352;51.084;3.712;2023-07-16T14:31:38;3.53;;;1.38;;
48574;SDS011;34352;51.084;3.712;2023-07-16T14:34:04;1.80;;;1.08;;
48574;SDS011;34352;51.084;3.712;2023-07-16T14:36:29;1.80;;;1.00;;
48574;SDS011;34352;51.084;3.712;2023-07-16T14:38:55;1.95;;;1.15;;
48574;SDS011;34352;51.084;3.712;2023-07-16T14:41:20;1.17;;;0.80;;
48574;SDS011;34352;51.084;3.712;2023-07-16T14:43:46;1.20;;;1.02;;
48574;SDS011;34352;51.084;3.712;2023-07-16T14:46:14;2.22;;;1.40;;
48574;SDS011;34352;51.084;3.712;2023-07-16T14:48:44;3.65;;;1.23;;
48574;SDS011;34352;51.084;3.712;2023-07-16T14:51:11;2.67;;;1.02;;
48574;SDS011;34352;51.084;3.712;2023-07-16T14:53:38;2.33;;;1.23;;
48574;SDS011;34352;51.084;3.712;2023-07-16T14:56:04;1.00;;;0.93;;
48574;SDS011;34352;51.084;3.712;2023-07-16T14:58:31;1.05;;;0.95;;
48574;SDS011;34352;51.084;3.712;2023-07-16T15:01:00;2.72;;;1.20;;
48574;SDS011;34352;51.084;3.712;2023-07-16T15:03:33;1.70;;;1.13;;
48574;SDS011;34352;51.084;3.712;2023-07-16T15:06:00;2.33;;;1.23;;
48574;SDS011;34352;51.084;3.712;2023-07-16T15:08:26;0.98;;;0.85;;
48574;SDS011;34352;51.084;3.712;2023-07-16T15:10:52;2.17;;;1.45;;
48574;SDS011;34352;51.084;3.712;2023-07-16T15:13:18;1.17;;;1.05;;
48574;SDS011;34352;51.084;3.712;2023-07-16T15:15:48;3.97;;;1.48;;
48574;SDS011;34352;51.084;3.712;2023-07-16T15:18:14;2.08;;;1.40;;
48574;SDS011;34352;51.084;3.712;2023-07-16T15:20:40;2.25;;;1.10;;
48574;SDS011;34352;51.084;3.712;2023-07-16T15:23:06;2.15;;;1.10;;
48574;SDS011;34352;51.084;3.712;2023-07-16T15:25:31;1.40;;;1.02;;
48574;SDS011;34352;51.084;3.712;2023-07-16T15:27:57;3.35;;;1.48;;
48574;SDS011;34352;51.084;3.712;2023-07-16T15:30:24;3.75;;;1.25;;
48574;SDS011;34352;51.084;3.712;2023-07-16T15:32:51;2.15;;;0.80;;
48574;SDS011;34352;51.084;3.712;2023-07-16T15:35:17;1.38;;;1.10;;
48574;SDS011;34352;51.084;3.712;2023-07-16T15:37:43;1.13;;;0.80;;
48574;SDS011;34352;51.084;3.712;2023-07-16T15:40:15;4.00;;;1.00;;
48574;SDS011;34352;51.084;3.712;2023-07-16T15:42:43;4.38;;;1.20;;
48574;SDS011;34352;51.084;3.712;2023-07-16T15:45:15;0.80;;;0.80;;
48574;SDS011;34352;51.084;3.712;2023-07-16T15:47:44;1.05;;;0.95;;
48574;SDS011;34352;51.084;3.712;2023-07-16T15:50:12;1.25;;;1.00;;
48574;SDS011;34352;51.084;3.712;2023-07-16T15:52:37;1.35;;;1.25;;
48574;SDS011;34352;51.084;3.712;2023-07-16T15:55:03;3.25;;;0.93;;
48574;SDS011;34352;51.084;3.712;2023-07-16T15:57:30;1.38;;;1.27;;
48574;SDS011;34352;51.084;3.712;2023-07-16T15:59:58;1.70;;;1.02;;
48574;SDS011;34352;51.084;3.712;2023-07-16T16:02:24;1.60;;;1.10;;
48574;SDS011;34352;51.084;3.712;2023-07-16T16:04:50;1.70;;;0.95;;